sensor_id;sensor_type;location;lat;lon;timestamp;temperature;humidity
68842;SHT35;55849;48.482;2.332;2022-09-09T00:01:27;18.74;81.72
68842;SHT35;55849;48.482;2.332;2022-09-09T00:04:33;18.73;82.47
68842;SHT35;55849;48.482;2.332;2022-09-09T00:07:42;18.71;82.82
68842;SHT35;55849;48.482;2.332;2022-09-09T00:10:51;18.73;81.85
68842;SHT35;55849;48.482;2.332;2022-09-09T00:13:57;18.66;81.94
68842;SHT35;55849;48.482;2.332;2022-09-09T00:17:02;18.64;80.66
68842;SHT35;55849;48.482;2.332;2022-09-09T00:20:12;18.63;81.13
68842;SHT35;55849;48.482;2.332;2022-09-09T00:23:19;18.61;80.18
68842;SHT35;55849;48.482;2.332;2022-09-09T00:26:31;18.60;82.40
68842;SHT35;55849;48.482;2.332;2022-09-09T00:29:37;18.57;81.86
68842;SHT35;55849;48.482;2.332;2022-09-09T00:32:43;18.53;81.04
68842;SHT35;55849;48.482;2.332;2022-09-09T00:35:48;18.56;82.27
68842;SHT35;55849;48.482;2.332;2022-09-09T00:38:52;18.55;81.60
68842;SHT35;55849;48.482;2.332;2022-09-09T00:42:08;18.52;81.92
68842;SHT35;55849;48.482;2.332;2022-09-09T00:45:24;18.49;82.17
68842;SHT35;55849;48.482;2.332;2022-09-09T00:48:40;18.46;81.87
68842;SHT35;55849;48.482;2.332;2022-09-09T00:51:55;18.46;81.08
68842;SHT35;55849;48.482;2.332;2022-09-09T00:55:05;18.45;80.52
68842;SHT35;55849;48.482;2.332;2022-09-09T00:58:09;18.39;81.34
68842;SHT35;55849;48.482;2.332;2022-09-09T01:01:12;18.38;82.13
68842;SHT35;55849;48.482;2.332;2022-09-09T01:04:17;18.39;80.51
68842;SHT35;55849;48.482;2.332;2022-09-09T01:07:24;18.32;80.47
68842;SHT35;55849;48.482;2.332;2022-09-09T01:10:32;18.31;81.28
68842;SHT35;55849;48.482;2.332;2022-09-09T01:13:41;18.29;80.88
68842;SHT35;55849;48.482;2.332;2022-09-09T01:16:44;18.26;81.71
68842;SHT35;55849;48.482;2.332;2022-09-09T01:19:57;18.22;80.95
68842;SHT35;55849;48.482;2.332;2022-09-09T01:26:30;18.21;80.63
68842;SHT35;55849;48.482;2.332;2022-09-09T01:29:33;18.21;81.58
68842;SHT35;55849;48.482;2.332;2022-09-09T01:32:41;18.18;81.62
68842;SHT35;55849;48.482;2.332;2022-09-09T01:35:49;18.19;82.60
68842;SHT35;55849;48.482;2.332;2022-09-09T01:38:52;18.18;82.31
68842;SHT35;55849;48.482;2.332;2022-09-09T01:41:56;18.18;80.72
68842;SHT35;55849;48.482;2.332;2022-09-09T01:44:58;18.17;80.72
68842;SHT35;55849;48.482;2.332;2022-09-09T01:48:00;18.17;80.77
68842;SHT35;55849;48.482;2.332;2022-09-09T01:51:03;18.17;80.74
68842;SHT35;55849;48.482;2.332;2022-09-09T01:54:06;18.14;80.76
68842;SHT35;55849;48.482;2.332;2022-09-09T01:57:15;18.14;80.74
68842;SHT35;55849;48.482;2.332;2022-09-09T02:00:19;18.11;81.10
68842;SHT35;55849;48.482;2.332;2022-09-09T02:03:25;18.07;81.69
68842;SHT35;55849;48.482;2.332;2022-09-09T02:06:33;18.07;81.08
68842;SHT35;55849;48.482;2.332;2022-09-09T02:09:36;18.04;80.96
68842;SHT35;55849;48.482;2.332;2022-09-09T02:12:43;18.04;80.97
68842;SHT35;55849;48.482;2.332;2022-09-09T02:15:53;18.00;81.23
68842;SHT35;55849;48.482;2.332;2022-09-09T02:19:01;18.00;80.94
68842;SHT35;55849;48.482;2.332;2022-09-09T02:22:04;18.00;81.46
68842;SHT35;55849;48.482;2.332;2022-09-09T02:25:08;18.00;81.49
68842;SHT35;55849;48.482;2.332;2022-09-09T02:28:13;17.97;80.99
68842;SHT35;55849;48.482;2.332;2022-09-09T02:31:17;17.96;80.80
68842;SHT35;55849;48.482;2.332;2022-09-09T02:34:22;17.96;81.14
68842;SHT35;55849;48.482;2.332;2022-09-09T02:37:29;17.96;81.14
68842;SHT35;55849;48.482;2.332;2022-09-09T02:40:33;17.94;81.59
68842;SHT35;55849;48.482;2.332;2022-09-09T02:43:36;17.91;81.82
68842;SHT35;55849;48.482;2.332;2022-09-09T02:46:56;17.97;81.21
68842;SHT35;55849;48.482;2.332;2022-09-09T02:50:06;17.94;80.85
68842;SHT35;55849;48.482;2.332;2022-09-09T02:53:16;17.93;81.18
68842;SHT35;55849;48.482;2.332;2022-09-09T02:56:20;17.91;81.98
68842;SHT35;55849;48.482;2.332;2022-09-09T02:59:26;17.93;81.12
68842;SHT35;55849;48.482;2.332;2022-09-09T03:02:28;17.94;81.37
68842;SHT35;55849;48.482;2.332;2022-09-09T03:05:30;17.94;81.83
68842;SHT35;55849;48.482;2.332;2022-09-09T03:08:32;17.97;81.59
68842;SHT35;55849;48.482;2.332;2022-09-09T03:11:33;17.94;82.03
68842;SHT35;55849;48.482;2.332;2022-09-09T03:14:37;17.94;81.11
68842;SHT35;55849;48.482;2.332;2022-09-09T03:17:39;17.96;81.16
68842;SHT35;55849;48.482;2.332;2022-09-09T03:20:41;17.96;81.25
68842;SHT35;55849;48.482;2.332;2022-09-09T03:23:43;17.94;81.52
68842;SHT35;55849;48.482;2.332;2022-09-09T03:26:45;17.93;81.86
68842;SHT35;55849;48.482;2.332;2022-09-09T03:29:48;17.94;82.25
68842;SHT35;55849;48.482;2.332;2022-09-09T03:32:51;17.94;82.08
68842;SHT35;55849;48.482;2.332;2022-09-09T03:35:52;17.94;83.12
68842;SHT35;55849;48.482;2.332;2022-09-09T03:38:56;17.94;81.11
68842;SHT35;55849;48.482;2.332;2022-09-09T03:41:59;17.98;81.47
68842;SHT35;55849;48.482;2.332;2022-09-09T03:45:08;18.01;81.93
68842;SHT35;55849;48.482;2.332;2022-09-09T03:48:10;18.00;81.79
68842;SHT35;55849;48.482;2.332;2022-09-09T03:51:12;18.02;81.70
68842;SHT35;55849;48.482;2.332;2022-09-09T03:54:15;18.01;81.50
68842;SHT35;55849;48.482;2.332;2022-09-09T03:57:17;18.01;81.72
68842;SHT35;55849;48.482;2.332;2022-09-09T04:00:20;18.00;81.13
68842;SHT35;55849;48.482;2.332;2022-09-09T04:03:22;18.02;81.43
68842;SHT35;55849;48.482;2.332;2022-09-09T04:06:25;18.01;81.83
68842;SHT35;55849;48.482;2.332;2022-09-09T04:09:26;18.01;81.38
68842;SHT35;55849;48.482;2.332;2022-09-09T04:12:28;17.98;81.38
68842;SHT35;55849;48.482;2.332;2022-09-09T04:15:31;18.01;81.53
68842;SHT35;55849;48.482;2.332;2022-09-09T04:18:33;18.01;81.21
68842;SHT35;55849;48.482;2.332;2022-09-09T04:21:35;18.00;82.26
68842;SHT35;55849;48.482;2.332;2022-09-09T04:24:37;18.02;81.33
68842;SHT35;55849;48.482;2.332;2022-09-09T04:27:38;18.00;81.24
68842;SHT35;55849;48.482;2.332;2022-09-09T04:30:42;18.01;81.17
68842;SHT35;55849;48.482;2.332;2022-09-09T04:33:43;17.98;81.99
68842;SHT35;55849;48.482;2.332;2022-09-09T04:36:46;17.97;81.08
68842;SHT35;55849;48.482;2.332;2022-09-09T04:39:48;17.98;81.10
68842;SHT35;55849;48.482;2.332;2022-09-09T04:42:50;17.96;80.93
68842;SHT35;55849;48.482;2.332;2022-09-09T04:45:53;17.98;82.91
68842;SHT35;55849;48.482;2.332;2022-09-09T04:48:54;18.01;81.53
68842;SHT35;55849;48.482;2.332;2022-09-09T04:51:56;18.01;81.74
68842;SHT35;55849;48.482;2.332;2022-09-09T04:54:58;18.00;81.83
68842;SHT35;55849;48.482;2.332;2022-09-09T04:58:03;18.00;81.12
68842;SHT35;55849;48.482;2.332;2022-09-09T05:01:08;17.96;80.90
68842;SHT35;55849;48.482;2.332;2022-09-09T05:04:10;17.94;81.38
68842;SHT35;55849;48.482;2.332;2022-09-09T05:07:12;17.97;80.94
68842;SHT35;55849;48.482;2.332;2022-09-09T05:10:14;17.94;81.37
68842;SHT35;55849;48.482;2.332;2022-09-09T05:13:16;17.90;81.54
68842;SHT35;55849;48.482;2.332;2022-09-09T05:16:20;17.89;81.24
68842;SHT35;55849;48.482;2.332;2022-09-09T05:19:23;17.89;81.23
68842;SHT35;55849;48.482;2.332;2022-09-09T05:22:24;17.89;81.49
68842;SHT35;55849;48.482;2.332;2022-09-09T05:25:26;17.87;81.48
68842;SHT35;55849;48.482;2.332;2022-09-09T05:28:28;17.86;81.28
68842;SHT35;55849;48.482;2.332;2022-09-09T05:31:32;17.87;82.38
68842;SHT35;55849;48.482;2.332;2022-09-09T05:34:34;17.89;81.50
68842;SHT35;55849;48.482;2.332;2022-09-09T05:37:36;17.90;81.50
68842;SHT35;55849;48.482;2.332;2022-09-09T05:40:37;17.89;81.67
68842;SHT35;55849;48.482;2.332;2022-09-09T05:43:39;17.91;81.28
68842;SHT35;55849;48.482;2.332;2022-09-09T05:46:42;17.91;80.95
68842;SHT35;55849;48.482;2.332;2022-09-09T05:49:44;17.89;81.03
68842;SHT35;55849;48.482;2.332;2022-09-09T05:52:46;17.87;81.50
68842;SHT35;55849;48.482;2.332;2022-09-09T05:55:49;17.91;81.40
68842;SHT35;55849;48.482;2.332;2022-09-09T05:58:51;17.90;81.83
68842;SHT35;55849;48.482;2.332;2022-09-09T06:01:55;17.91;81.87
68842;SHT35;55849;48.482;2.332;2022-09-09T06:04:57;17.91;81.59
68842;SHT35;55849;48.482;2.332;2022-09-09T06:07:58;17.93;81.29
68842;SHT35;55849;48.482;2.332;2022-09-09T06:11:03;17.96;81.60
68842;SHT35;55849;48.482;2.332;2022-09-09T06:14:06;17.93;81.97
68842;SHT35;55849;48.482;2.332;2022-09-09T06:17:09;17.97;82.05
68842;SHT35;55849;48.482;2.332;2022-09-09T06:20:11;17.98;81.54
68842;SHT35;55849;48.482;2.332;2022-09-09T06:23:14;18.00;81.55
68842;SHT35;55849;48.482;2.332;2022-09-09T06:26:17;18.01;81.57
68842;SHT35;55849;48.482;2.332;2022-09-09T06:29:19;18.01;81.37
68842;SHT35;55849;48.482;2.332;2022-09-09T06:32:22;18.05;81.29
68842;SHT35;55849;48.482;2.332;2022-09-09T06:35:23;18.07;81.25
68842;SHT35;55849;48.482;2.332;2022-09-09T06:38:25;18.11;81.60
68842;SHT35;55849;48.482;2.332;2022-09-09T06:41:29;18.14;81.53
68842;SHT35;55849;48.482;2.332;2022-09-09T06:44:31;18.17;81.57
68842;SHT35;55849;48.482;2.332;2022-09-09T06:47:35;18.19;81.28
68842;SHT35;55849;48.482;2.332;2022-09-09T06:50:36;18.21;81.42
68842;SHT35;55849;48.482;2.332;2022-09-09T06:53:39;18.25;81.78
68842;SHT35;55849;48.482;2.332;2022-09-09T06:56:42;18.25;81.30
68842;SHT35;55849;48.482;2.332;2022-09-09T06:59:45;18.29;81.60
68842;SHT35;55849;48.482;2.332;2022-09-09T07:02:48;18.32;81.74
68842;SHT35;55849;48.482;2.332;2022-09-09T07:05:54;18.36;80.93
68842;SHT35;55849;48.482;2.332;2022-09-09T07:08:58;18.41;81.70
68842;SHT35;55849;48.482;2.332;2022-09-09T07:12:01;18.45;80.66
68842;SHT35;55849;48.482;2.332;2022-09-09T07:15:04;18.46;80.86
68842;SHT35;55849;48.482;2.332;2022-09-09T07:18:07;18.43;80.50
68842;SHT35;55849;48.482;2.332;2022-09-09T07:21:11;18.46;81.17
68842;SHT35;55849;48.482;2.332;2022-09-09T07:24:13;18.46;81.38
68842;SHT35;55849;48.482;2.332;2022-09-09T07:27:15;18.49;80.78
68842;SHT35;55849;48.482;2.332;2022-09-09T07:30:17;18.52;81.30
68842;SHT35;55849;48.482;2.332;2022-09-09T07:33:21;18.53;80.90
68842;SHT35;55849;48.482;2.332;2022-09-09T07:36:24;18.52;80.23
68842;SHT35;55849;48.482;2.332;2022-09-09T07:39:26;18.52;80.38
68842;SHT35;55849;48.482;2.332;2022-09-09T07:42:28;18.52;80.42
68842;SHT35;55849;48.482;2.332;2022-09-09T07:45:30;18.50;80.40
68842;SHT35;55849;48.482;2.332;2022-09-09T07:48:35;18.50;80.91
68842;SHT35;55849;48.482;2.332;2022-09-09T07:51:39;18.55;80.23
68842;SHT35;55849;48.482;2.332;2022-09-09T07:54:42;18.56;80.71
68842;SHT35;55849;48.482;2.332;2022-09-09T07:57:46;18.57;80.15
68842;SHT35;55849;48.482;2.332;2022-09-09T08:00:47;18.61;80.88
68842;SHT35;55849;48.482;2.332;2022-09-09T08:03:55;18.64;80.44
68842;SHT35;55849;48.482;2.332;2022-09-09T08:07:00;18.64;80.94
68842;SHT35;55849;48.482;2.332;2022-09-09T08:10:03;18.70;80.96
68842;SHT35;55849;48.482;2.332;2022-09-09T08:13:06;18.74;80.82
68842;SHT35;55849;48.482;2.332;2022-09-09T08:16:10;18.74;80.62
68842;SHT35;55849;48.482;2.332;2022-09-09T08:19:13;18.81;80.49
68842;SHT35;55849;48.482;2.332;2022-09-09T08:22:15;18.88;80.99
68842;SHT35;55849;48.482;2.332;2022-09-09T08:25:17;18.93;80.14
68842;SHT35;55849;48.482;2.332;2022-09-09T08:28:18;18.97;80.51
68842;SHT35;55849;48.482;2.332;2022-09-09T08:31:21;19.02;80.11
68842;SHT35;55849;48.482;2.332;2022-09-09T08:34:25;19.04;80.47
68842;SHT35;55849;48.482;2.332;2022-09-09T08:37:28;19.08;79.75
68842;SHT35;55849;48.482;2.332;2022-09-09T08:40:34;19.11;80.12
68842;SHT35;55849;48.482;2.332;2022-09-09T08:43:39;19.12;80.89
68842;SHT35;55849;48.482;2.332;2022-09-09T08:46:49;19.18;80.39
68842;SHT35;55849;48.482;2.332;2022-09-09T08:50:13;19.22;79.86
68842;SHT35;55849;48.482;2.332;2022-09-09T08:53:19;19.25;79.82
68842;SHT35;55849;48.482;2.332;2022-09-09T08:56:24;19.28;79.66
68842;SHT35;55849;48.482;2.332;2022-09-09T08:59:26;19.30;78.80
68842;SHT35;55849;48.482;2.332;2022-09-09T09:02:36;19.30;78.95
68842;SHT35;55849;48.482;2.332;2022-09-09T09:05:47;19.30;78.91
68842;SHT35;55849;48.482;2.332;2022-09-09T09:08:58;19.36;78.58
68842;SHT35;55849;48.482;2.332;2022-09-09T09:12:06;19.42;78.28
68842;SHT35;55849;48.482;2.332;2022-09-09T09:15:14;19.49;79.07
68842;SHT35;55849;48.482;2.332;2022-09-09T09:18:17;19.54;77.78
68842;SHT35;55849;48.482;2.332;2022-09-09T09:21:27;19.54;78.57
68842;SHT35;55849;48.482;2.332;2022-09-09T09:24:37;19.62;77.91
68842;SHT35;55849;48.482;2.332;2022-09-09T09:27:49;19.63;78.26
68842;SHT35;55849;48.482;2.332;2022-09-09T09:30:56;19.67;78.19
68842;SHT35;55849;48.482;2.332;2022-09-09T09:33:59;19.73;77.76
68842;SHT35;55849;48.482;2.332;2022-09-09T09:37:02;19.73;77.40
68842;SHT35;55849;48.482;2.332;2022-09-09T09:40:14;19.77;77.35
68842;SHT35;55849;48.482;2.332;2022-09-09T09:43:20;19.74;77.63
68842;SHT35;55849;48.482;2.332;2022-09-09T09:46:24;19.80;77.51
68842;SHT35;55849;48.482;2.332;2022-09-09T09:49:26;19.80;77.50
68842;SHT35;55849;48.482;2.332;2022-09-09T09:52:31;19.85;77.36
68842;SHT35;55849;48.482;2.332;2022-09-09T09:55:35;19.91;77.61
68842;SHT35;55849;48.482;2.332;2022-09-09T09:58:49;19.97;77.37
68842;SHT35;55849;48.482;2.332;2022-09-09T10:01:51;19.99;76.92
68842;SHT35;55849;48.482;2.332;2022-09-09T10:05:00;20.05;77.79
68842;SHT35;55849;48.482;2.332;2022-09-09T10:08:09;20.15;76.48
68842;SHT35;55849;48.482;2.332;2022-09-09T10:11:25;20.18;76.82
68842;SHT35;55849;48.482;2.332;2022-09-09T10:14:36;20.26;76.30
68842;SHT35;55849;48.482;2.332;2022-09-09T10:17:52;20.30;76.37
68842;SHT35;55849;48.482;2.332;2022-09-09T10:21:04;20.40;75.39
68842;SHT35;55849;48.482;2.332;2022-09-09T10:27:42;20.46;74.77
68842;SHT35;55849;48.482;2.332;2022-09-09T10:30:52;20.47;74.55
68842;SHT35;55849;48.482;2.332;2022-09-09T10:34:10;20.44;74.66
68842;SHT35;55849;48.482;2.332;2022-09-09T10:37:23;20.44;75.26
68842;SHT35;55849;48.482;2.332;2022-09-09T10:40:35;20.53;75.48
68842;SHT35;55849;48.482;2.332;2022-09-09T10:43:50;20.60;74.85
68842;SHT35;55849;48.482;2.332;2022-09-09T10:47:21;20.65;73.43
68842;SHT35;55849;48.482;2.332;2022-09-09T10:50:38;20.73;73.93
68842;SHT35;55849;48.482;2.332;2022-09-09T10:53:52;20.80;72.38
68842;SHT35;55849;48.482;2.332;2022-09-09T10:57:00;20.81;71.77
68842;SHT35;55849;48.482;2.332;2022-09-09T11:00:06;20.91;72.40
68842;SHT35;55849;48.482;2.332;2022-09-09T11:03:17;20.96;72.07
68842;SHT35;55849;48.482;2.332;2022-09-09T11:06:27;21.02;71.49
68842;SHT35;55849;48.482;2.332;2022-09-09T11:09:33;21.08;71.07
68842;SHT35;55849;48.482;2.332;2022-09-09T11:12:39;21.10;71.07
68842;SHT35;55849;48.482;2.332;2022-09-09T11:15:48;21.13;71.16
68842;SHT35;55849;48.482;2.332;2022-09-09T11:18:55;21.15;71.33
68842;SHT35;55849;48.482;2.332;2022-09-09T11:21:59;21.15;70.69
68842;SHT35;55849;48.482;2.332;2022-09-09T11:25:08;21.16;71.49
68842;SHT35;55849;48.482;2.332;2022-09-09T11:28:28;21.19;70.12
68842;SHT35;55849;48.482;2.332;2022-09-09T11:31:44;21.22;70.41
68842;SHT35;55849;48.482;2.332;2022-09-09T11:34:53;21.25;70.49
68842;SHT35;55849;48.482;2.332;2022-09-09T11:38:10;21.30;69.22
68842;SHT35;55849;48.482;2.332;2022-09-09T11:41:15;21.33;70.08
68842;SHT35;55849;48.482;2.332;2022-09-09T11:44:24;21.39;70.14
68842;SHT35;55849;48.482;2.332;2022-09-09T11:47:29;21.39;68.99
68842;SHT35;55849;48.482;2.332;2022-09-09T11:50:33;21.40;69.99
68842;SHT35;55849;48.482;2.332;2022-09-09T11:53:47;21.39;68.15
68842;SHT35;55849;48.482;2.332;2022-09-09T11:56:50;21.37;69.16
68842;SHT35;55849;48.482;2.332;2022-09-09T11:59:53;21.43;69.10
68842;SHT35;55849;48.482;2.332;2022-09-09T12:02:55;21.54;69.02
68842;SHT35;55849;48.482;2.332;2022-09-09T12:05:57;21.67;67.76
68842;SHT35;55849;48.482;2.332;2022-09-09T12:09:07;21.78;68.21
68842;SHT35;55849;48.482;2.332;2022-09-09T12:12:27;21.93;67.68
68842;SHT35;55849;48.482;2.332;2022-09-09T12:15:31;22.06;67.59
68842;SHT35;55849;48.482;2.332;2022-09-09T12:18:34;22.14;66.78
68842;SHT35;55849;48.482;2.332;2022-09-09T12:21:45;22.21;68.03
68842;SHT35;55849;48.482;2.332;2022-09-09T12:24:52;22.33;68.36
68842;SHT35;55849;48.482;2.332;2022-09-09T12:28:06;22.48;67.51
68842;SHT35;55849;48.482;2.332;2022-09-09T12:31:15;22.68;67.48
68842;SHT35;55849;48.482;2.332;2022-09-09T12:34:33;22.92;68.04
68842;SHT35;55849;48.482;2.332;2022-09-09T12:37:38;23.16;65.80
68842;SHT35;55849;48.482;2.332;2022-09-09T12:40:42;23.37;65.78
68842;SHT35;55849;48.482;2.332;2022-09-09T12:43:44;23.57;64.92
68842;SHT35;55849;48.482;2.332;2022-09-09T12:46:48;23.73;65.17
68842;SHT35;55849;48.482;2.332;2022-09-09T12:49:50;23.88;63.80
68842;SHT35;55849;48.482;2.332;2022-09-09T12:52:55;23.98;63.46
68842;SHT35;55849;48.482;2.332;2022-09-09T12:56:00;24.18;64.88
68842;SHT35;55849;48.482;2.332;2022-09-09T12:59:02;24.31;62.15
68842;SHT35;55849;48.482;2.332;2022-09-09T13:02:17;24.38;62.67
68842;SHT35;55849;48.482;2.332;2022-09-09T13:05:22;24.44;61.99
68842;SHT35;55849;48.482;2.332;2022-09-09T13:08:24;24.45;61.85
68842;SHT35;55849;48.482;2.332;2022-09-09T13:11:29;24.41;62.51
68842;SHT35;55849;48.482;2.332;2022-09-09T13:14:35;24.34;62.93
68842;SHT35;55849;48.482;2.332;2022-09-09T13:17:39;24.27;62.21
68842;SHT35;55849;48.482;2.332;2022-09-09T13:20:46;24.24;61.87
68842;SHT35;55849;48.482;2.332;2022-09-09T13:23:51;24.24;61.50
68842;SHT35;55849;48.482;2.332;2022-09-09T13:26:55;24.30;62.61
68842;SHT35;55849;48.482;2.332;2022-09-09T13:29:57;24.33;60.50
68842;SHT35;55849;48.482;2.332;2022-09-09T13:33:02;24.28;62.88
68842;SHT35;55849;48.482;2.332;2022-09-09T13:36:06;24.18;63.04
68842;SHT35;55849;48.482;2.332;2022-09-09T13:39:15;24.12;62.85
68842;SHT35;55849;48.482;2.332;2022-09-09T13:42:22;24.06;62.79
68842;SHT35;55849;48.482;2.332;2022-09-09T13:45:26;23.93;62.05
68842;SHT35;55849;48.482;2.332;2022-09-09T13:48:29;23.88;62.57
68842;SHT35;55849;48.482;2.332;2022-09-09T13:51:36;23.81;62.85
68842;SHT35;55849;48.482;2.332;2022-09-09T13:54:38;23.73;63.26
68842;SHT35;55849;48.482;2.332;2022-09-09T13:57:50;23.61;62.43
68842;SHT35;55849;48.482;2.332;2022-09-09T14:00:52;23.53;63.72
68842;SHT35;55849;48.482;2.332;2022-09-09T14:03:56;23.44;65.13
68842;SHT35;55849;48.482;2.332;2022-09-09T14:06:57;23.40;64.87
68842;SHT35;55849;48.482;2.332;2022-09-09T14:09:59;23.36;65.35
68842;SHT35;55849;48.482;2.332;2022-09-09T14:13:01;23.33;66.21
68842;SHT35;55849;48.482;2.332;2022-09-09T14:16:03;23.28;66.63
68842;SHT35;55849;48.482;2.332;2022-09-09T14:19:07;23.28;66.12
68842;SHT35;55849;48.482;2.332;2022-09-09T14:22:09;23.21;67.29
68842;SHT35;55849;48.482;2.332;2022-09-09T14:25:11;23.14;67.76
68842;SHT35;55849;48.482;2.332;2022-09-09T14:28:13;23.06;67.27
68842;SHT35;55849;48.482;2.332;2022-09-09T14:31:16;23.03;68.16
68842;SHT35;55849;48.482;2.332;2022-09-09T14:34:19;22.99;70.28
68842;SHT35;55849;48.482;2.332;2022-09-09T14:37:20;22.88;71.05
68842;SHT35;55849;48.482;2.332;2022-09-09T14:40:22;22.75;73.52
68842;SHT35;55849;48.482;2.332;2022-09-09T14:43:24;22.58;72.36
68842;SHT35;55849;48.482;2.332;2022-09-09T14:46:26;22.37;72.75
68842;SHT35;55849;48.482;2.332;2022-09-09T14:49:29;22.23;74.60
68842;SHT35;55849;48.482;2.332;2022-09-09T14:52:31;22.08;73.65
68842;SHT35;55849;48.482;2.332;2022-09-09T14:55:33;21.92;74.30
68842;SHT35;55849;48.482;2.332;2022-09-09T14:58:35;21.81;75.83
68842;SHT35;55849;48.482;2.332;2022-09-09T15:01:37;21.74;75.71
68842;SHT35;55849;48.482;2.332;2022-09-09T15:04:40;21.64;75.80
68842;SHT35;55849;48.482;2.332;2022-09-09T15:07:42;21.57;76.43
68842;SHT35;55849;48.482;2.332;2022-09-09T15:10:44;21.51;76.45
68842;SHT35;55849;48.482;2.332;2022-09-09T15:13:50;21.40;75.94
68842;SHT35;55849;48.482;2.332;2022-09-09T15:16:52;21.33;77.39
68842;SHT35;55849;48.482;2.332;2022-09-09T15:19:55;21.27;76.01
68842;SHT35;55849;48.482;2.332;2022-09-09T15:22:57;21.16;75.46
68842;SHT35;55849;48.482;2.332;2022-09-09T15:25:59;21.10;75.55
68842;SHT35;55849;48.482;2.332;2022-09-09T15:29:00;20.99;76.31
68842;SHT35;55849;48.482;2.332;2022-09-09T15:32:02;20.92;77.18
68842;SHT35;55849;48.482;2.332;2022-09-09T15:35:06;20.85;77.35
68842;SHT35;55849;48.482;2.332;2022-09-09T15:38:08;20.73;77.16
68842;SHT35;55849;48.482;2.332;2022-09-09T15:41:10;20.67;77.72
68842;SHT35;55849;48.482;2.332;2022-09-09T15:44:12;20.65;77.84
68842;SHT35;55849;48.482;2.332;2022-09-09T15:47:14;20.57;77.43
68842;SHT35;55849;48.482;2.332;2022-09-09T15:50:17;20.47;78.75
68842;SHT35;55849;48.482;2.332;2022-09-09T15:53:19;20.46;78.12
68842;SHT35;55849;48.482;2.332;2022-09-09T15:56:24;20.39;77.96
68842;SHT35;55849;48.482;2.332;2022-09-09T15:59:30;20.32;77.53
68842;SHT35;55849;48.482;2.332;2022-09-09T16:02:33;20.30;77.74
68842;SHT35;55849;48.482;2.332;2022-09-09T16:05:36;20.25;79.47
68842;SHT35;55849;48.482;2.332;2022-09-09T16:08:40;20.26;80.02
68842;SHT35;55849;48.482;2.332;2022-09-09T16:11:43;20.22;80.29
68842;SHT35;55849;48.482;2.332;2022-09-09T16:14:44;20.21;79.90
68842;SHT35;55849;48.482;2.332;2022-09-09T16:17:46;20.19;78.85
68842;SHT35;55849;48.482;2.332;2022-09-09T16:20:54;20.18;79.78
68842;SHT35;55849;48.482;2.332;2022-09-09T16:23:57;20.15;77.55
68842;SHT35;55849;48.482;2.332;2022-09-09T16:26:59;20.02;76.91
68842;SHT35;55849;48.482;2.332;2022-09-09T16:30:01;19.94;79.42
68842;SHT35;55849;48.482;2.332;2022-09-09T16:33:02;19.89;78.97
68842;SHT35;55849;48.482;2.332;2022-09-09T16:36:10;19.85;79.04
68842;SHT35;55849;48.482;2.332;2022-09-09T16:39:14;19.84;79.25
68842;SHT35;55849;48.482;2.332;2022-09-09T16:42:16;19.81;80.06
68842;SHT35;55849;48.482;2.332;2022-09-09T16:45:18;19.82;78.88
68842;SHT35;55849;48.482;2.332;2022-09-09T16:48:19;19.81;79.01
68842;SHT35;55849;48.482;2.332;2022-09-09T16:51:24;19.81;79.70
68842;SHT35;55849;48.482;2.332;2022-09-09T16:54:26;19.80;79.47
68842;SHT35;55849;48.482;2.332;2022-09-09T16:57:29;19.80;79.75
68842;SHT35;55849;48.482;2.332;2022-09-09T17:00:30;19.78;79.17
68842;SHT35;55849;48.482;2.332;2022-09-09T17:03:32;19.78;80.42
68842;SHT35;55849;48.482;2.332;2022-09-09T17:06:36;19.78;79.81
68842;SHT35;55849;48.482;2.332;2022-09-09T17:09:38;19.77;80.38
68842;SHT35;55849;48.482;2.332;2022-09-09T17:12:40;19.81;80.93
68842;SHT35;55849;48.482;2.332;2022-09-09T17:15:42;19.81;82.29
68842;SHT35;55849;48.482;2.332;2022-09-09T17:18:44;19.81;82.12
68842;SHT35;55849;48.482;2.332;2022-09-09T17:21:47;19.82;82.17
68842;SHT35;55849;48.482;2.332;2022-09-09T17:24:49;19.85;80.58
68842;SHT35;55849;48.482;2.332;2022-09-09T17:27:51;19.82;81.81
68842;SHT35;55849;48.482;2.332;2022-09-09T17:30:54;19.84;81.84
68842;SHT35;55849;48.482;2.332;2022-09-09T17:33:56;19.84;81.98
68842;SHT35;55849;48.482;2.332;2022-09-09T17:37:00;19.85;81.82
68842;SHT35;55849;48.482;2.332;2022-09-09T17:40:03;19.85;81.82
68842;SHT35;55849;48.482;2.332;2022-09-09T17:43:04;19.85;82.20
68842;SHT35;55849;48.482;2.332;2022-09-09T17:46:07;19.85;82.48
68842;SHT35;55849;48.482;2.332;2022-09-09T17:49:11;19.84;82.24
68842;SHT35;55849;48.482;2.332;2022-09-09T17:52:15;19.82;82.29
68842;SHT35;55849;48.482;2.332;2022-09-09T17:55:17;19.82;82.31
68842;SHT35;55849;48.482;2.332;2022-09-09T17:58:19;19.81;81.95
68842;SHT35;55849;48.482;2.332;2022-09-09T18:01:23;19.81;81.63
68842;SHT35;55849;48.482;2.332;2022-09-09T18:04:27;19.81;82.33
68842;SHT35;55849;48.482;2.332;2022-09-09T18:07:30;19.81;82.37
68842;SHT35;55849;48.482;2.332;2022-09-09T18:10:31;19.78;82.51
68842;SHT35;55849;48.482;2.332;2022-09-09T18:13:33;19.78;81.04
68842;SHT35;55849;48.482;2.332;2022-09-09T18:16:35;19.77;80.73
68842;SHT35;55849;48.482;2.332;2022-09-09T18:19:37;19.77;81.40
68842;SHT35;55849;48.482;2.332;2022-09-09T18:22:40;19.74;82.19
68842;SHT35;55849;48.482;2.332;2022-09-09T18:25:42;19.74;81.96
68842;SHT35;55849;48.482;2.332;2022-09-09T18:28:50;19.73;82.10
68842;SHT35;55849;48.482;2.332;2022-09-09T18:31:53;19.71;82.24
68842;SHT35;55849;48.482;2.332;2022-09-09T18:34:55;19.66;81.59
68842;SHT35;55849;48.482;2.332;2022-09-09T18:37:59;19.66;82.19
68842;SHT35;55849;48.482;2.332;2022-09-09T18:41:11;19.64;82.44
68842;SHT35;55849;48.482;2.332;2022-09-09T18:44:15;19.64;81.73
68842;SHT35;55849;48.482;2.332;2022-09-09T18:47:17;19.60;82.38
68842;SHT35;55849;48.482;2.332;2022-09-09T18:50:21;19.59;82.08
68842;SHT35;55849;48.482;2.332;2022-09-09T18:53:24;19.54;81.90
68842;SHT35;55849;48.482;2.332;2022-09-09T18:56:26;19.52;81.89
68842;SHT35;55849;48.482;2.332;2022-09-09T18:59:28;19.52;82.78
68842;SHT35;55849;48.482;2.332;2022-09-09T19:02:30;19.52;82.69
68842;SHT35;55849;48.482;2.332;2022-09-09T19:05:32;19.52;82.19
68842;SHT35;55849;48.482;2.332;2022-09-09T19:08:37;19.49;82.99
68842;SHT35;55849;48.482;2.332;2022-09-09T19:11:39;19.46;82.22
68842;SHT35;55849;48.482;2.332;2022-09-09T19:14:41;19.46;82.15
68842;SHT35;55849;48.482;2.332;2022-09-09T19:17:43;19.43;82.20
68842;SHT35;55849;48.482;2.332;2022-09-09T19:20:45;19.40;81.89
68842;SHT35;55849;48.482;2.332;2022-09-09T19:23:52;19.40;82.01
68842;SHT35;55849;48.482;2.332;2022-09-09T19:26:55;19.37;81.71
68842;SHT35;55849;48.482;2.332;2022-09-09T19:29:58;19.36;81.82
68842;SHT35;55849;48.482;2.332;2022-09-09T19:32:59;19.33;81.82